Time;durP1;ratioP1;P1;durP2;ratioP2;P2;SDS_P1;SDS_P2;PMS_P1;PMS_P2;Temp;Humidity;BMP_temperature;BMP_pressure;BME280_temperature;BME280_humidity;BME280_pressure;Samples;Min_cycle;Max_cycle;Signal;HPM_P1;HPM_P2
2022/09/23 01:29:10;;;;;;;2.40;2.20;;;6.80;99.90;;;;;;5051812;28;20179;-91
2022/09/23 01:31:43;;;;;;;5.55;2.50;;;6.80;99.90;;;;;;4911527;29;20210;-69
2022/09/23 01:34:14;;;;;;;3.13;2.50;;;6.70;99.90;;;;;;4913838;29;20226;-68
2022/09/23 01:36:47;;;;;;;2.70;2.20;;;6.70;99.90;;;;;;4913980;29;20211;-68
2022/09/23 01:39:21;;;;;;;2.35;2.15;;;6.70;99.90;;;;;;4914189;29;20580;-69
2022/09/23 01:41:54;;;;;;;2.03;1.83;;;6.70;99.90;;;;;;4917057;29;20257;-68
2022/09/23 01:44:28;;;;;;;2.30;2.10;;;6.70;99.90;;;;;;4917279;29;20230;-69
2022/09/23 01:47:00;;;;;;;2.65;2.17;;;6.70;99.90;;;;;;4917383;29;20261;-69
2022/09/23 01:49:32;;;;;;;3.10;2.40;;;6.70;99.90;;;;;;4917369;29;20220;-69
2022/09/23 01:52:04;;;;;;;2.33;2.13;;;6.70;99.90;;;;;;4916407;29;20262;-68
2022/09/23 01:54:38;;;;;;;2.55;2.35;;;6.70;99.90;;;;;;4935966;29;20250;-68
2022/09/23 01:57:11;;;;;;;3.65;2.50;;;6.60;99.90;;;;;;4936168;29;20299;-68
2022/09/23 01:59:40;;;;;;;3.30;1.95;;;6.60;99.90;;;;;;4936034;29;20214;-68
2022/09/23 02:02:14;;;;;;;2.25;2.05;;;6.60;99.90;;;;;;4935288;29;20719;-68
2022/09/23 02:04:47;;;;;;;5.00;2.50;;;6.60;99.90;;;;;;4935976;29;20227;-68
2022/09/23 02:07:19;;;;;;;2.88;2.33;;;6.60;99.90;;;;;;4936064;29;20236;-68
2022/09/23 02:09:54;;;;;;;2.78;2.42;;;6.60;99.90;;;;;;4935892;29;20213;-68
2022/09/23 02:12:24;;;;;;;2.17;1.98;;;6.50;99.90;;;;;;4935327;29;20205;-68
2022/09/23 02:14:56;;;;;;;3.35;2.33;;;6.50;99.90;;;;;;4935925;29;20230;-68
2022/09/23 02:17:30;;;;;;;2.55;2.17;;;6.40;99.90;;;;;;4935819;29;20699;-68
2022/09/23 02:20:01;;;;;;;2.90;2.40;;;6.40;99.90;;;;;;4935752;29;20207;-68
2022/09/23 02:22:33;;;;;;;2.53;2.33;;;6.40;99.90;;;;;;4935133;29;20576;-69
2022/09/23 02:25:00;;;;;;;2.63;2.22;;;6.30;99.90;;;;;;4935626;29;20578;-69
2022/09/23 02:27:34;;;;;;;2.58;2.15;;;6.30;99.90;;;;;;4935509;29;20674;-68
2022/09/23 02:30:08;;;;;;;2.55;2.25;;;6.30;99.90;;;;;;4935371;29;20601;-69
2022/09/23 02:32:48;;;;;;;6.55;2.78;;;6.30;99.90;;;;;;4934788;29;20688;-68
2022/09/23 02:35:19;;;;;;;3.22;2.20;;;6.30;99.90;;;;;;4935505;29;20586;-68
2022/09/23 02:37:52;;;;;;;2.83;2.40;;;6.30;99.90;;;;;;4935433;29;20201;-69
2022/09/23 02:40:25;;;;;;;2.40;2.20;;;6.30;99.90;;;;;;4935466;29;20205;-68
2022/09/23 02:43:05;;;;;;;2.47;1.98;;;6.20;99.90;;;;;;4934578;29;20218;-69
2022/09/23 02:45:33;;;;;;;2.55;2.13;;;6.20;99.90;;;;;;4935272;29;20204;-69
2022/09/23 02:48:06;;;;;;;3.00;2.17;;;6.20;99.90;;;;;;4935075;29;20210;-68
2022/09/23 02:50:34;;;;;;;2.70;2.25;;;6.20;99.90;;;;;;4934588;29;20247;-68
2022/09/23 02:53:01;;;;;;;3.10;2.53;;;6.20;99.90;;;;;;4934245;29;20233;-68
2022/09/23 02:55:31;;;;;;;2.80;2.60;;;6.20;99.90;;;;;;4935039;29;20236;-68
2022/09/23 02:57:59;;;;;;;2.25;2.10;;;6.20;99.90;;;;;;4934850;29;20682;-69
2022/09/23 03:00:31;;;;;;;3.67;2.33;;;6.10;99.90;;;;;;4934808;29;20257;-69
2022/09/23 03:03:14;;;;;;;2.70;2.30;;;6.10;99.90;;;;;;4934407;29;20230;-68
2022/09/23 03:05:47;;;;;;;2.40;2.20;;;6.10;99.90;;;;;;4934795;29;20206;-68
2022/09/23 03:08:28;;;;;;;2.67;2.40;;;6.10;99.90;;;;;;4934896;29;20210;-69
2022/09/23 03:11:03;;;;;;;3.75;2.47;;;6.00;99.90;;;;;;4934628;29;20202;-69
2022/09/23 03:13:35;;;;;;;2.22;2.03;;;6.10;99.90;;;;;;4934227;29;20260;-68
2022/09/23 03:16:11;;;;;;;2.08;1.83;;;6.00;99.90;;;;;;4934586;29;20583;-69
2022/09/23 03:18:44;;;;;;;2.53;2.33;;;6.00;99.90;;;;;;4934503;29;20207;-68
2022/09/23 03:21:17;;;;;;;2.35;2.08;;;6.00;99.90;;;;;;4934036;29;20225;-68
2022/09/23 03:23:46;;;;;;;2.78;2.17;;;6.00;99.90;;;;;;4934561;29;20233;-68
2022/09/23 03:26:16;;;;;;;2.55;2.08;;;6.00;99.90;;;;;;4934316;29;20211;-69
2022/09/23 03:28:44;;;;;;;2.50;2.22;;;6.00;99.90;;;;;;4934268;29;20220;-68
2022/09/23 03:31:12;;;;;;;5.30;2.40;;;5.90;99.90;;;;;;4933701;29;20213;-68
2022/09/23 03:33:46;;;;;;;3.20;2.42;;;6.00;99.90;;;;;;4934082;29;20322;-68
2022/09/23 03:39:05;;;;;;;3.17;2.40;;;6.30;99.90;;;;;;4928289;29;20209;-68
2022/09/23 03:41:38;;;;;;;2.90;2.60;;;6.20;99.90;;;;;;4926566;29;20605;-68
2022/09/23 03:44:06;;;;;;;2.38;2.10;;;6.20;99.90;;;;;;4927831;29;20225;-69
2022/09/23 03:46:34;;;;;;;2.80;2.25;;;6.20;99.90;;;;;;4929648;29;20227;-68
2022/09/23 03:49:08;;;;;;;2.60;2.30;;;6.10;99.90;;;;;;4929165;29;20572;-68
2022/09/23 03:51:35;;;;;;;2.85;2.20;;;6.00;99.90;;;;;;4931100;29;20591;-68
2022/09/23 03:54:01;;;;;;;2.40;2.20;;;6.10;99.90;;;;;;4929015;29;20228;-68
2022/09/23 03:56:28;;;;;;;2.72;2.47;;;6.10;99.90;;;;;;4928326;29;20198;-68
2022/09/23 03:58:55;;;;;;;3.15;2.40;;;6.00;99.90;;;;;;4929962;29;20209;-68
2022/09/23 04:01:22;;;;;;;3.08;2.38;;;6.00;99.90;;;;;;4931004;29;20217;-68
2022/09/23 04:03:48;;;;;;;4.63;2.53;;;6.00;99.90;;;;;;4928026;29;20224;-68
2022/09/23 04:06:16;;;;;;;2.70;2.50;;;5.90;99.90;;;;;;4928363;29;20700;-68
2022/09/23 04:08:43;;;;;;;2.58;2.33;;;5.90;99.90;;;;;;4927469;29;20628;-68
2022/09/23 04:11:10;;;;;;;2.03;1.83;;;5.90;99.90;;;;;;4931409;29;20225;-68
2022/09/23 04:13:37;;;;;;;2.72;2.53;;;5.90;99.90;;;;;;4931377;29;20229;-69
2022/09/23 04:16:04;;;;;;;2.90;2.42;;;5.80;99.90;;;;;;4931291;29;20689;-68
2022/09/23 04:18:31;;;;;;;2.92;2.70;;;5.80;99.90;;;;;;4931738;29;20206;-68
2022/09/23 04:20:58;;;;;;;3.00;2.70;;;5.70;99.90;;;;;;4930773;29;20467;-68
2022/09/23 04:23:27;;;;;;;2.75;2.30;;;5.70;99.90;;;;;;4930712;29;20516;-68
2022/09/23 04:25:54;;;;;;;4.30;2.75;;;5.70;99.90;;;;;;4933477;29;20580;-68
2022/09/23 04:28:22;;;;;;;2.30;2.08;;;5.70;99.90;;;;;;4933894;29;20213;-68
2022/09/23 04:30:48;;;;;;;2.10;2.00;;;5.70;99.90;;;;;;4933613;29;20210;-68
2022/09/23 04:33:16;;;;;;;3.15;2.85;;;5.70;99.90;;;;;;4933213;29;20227;-68
2022/09/23 04:35:43;;;;;;;3.03;2.10;;;5.70;99.90;;;;;;4933538;29;20209;-68
2022/09/23 04:38:11;;;;;;;2.45;2.05;;;5.70;99.90;;;;;;4933916;29;20214;-68
2022/09/23 04:40:39;;;;;;;2.40;2.20;;;5.70;99.90;;;;;;4933836;29;20233;-68
2022/09/23 04:43:06;;;;;;;3.78;2.80;;;5.60;99.90;;;;;;4933003;29;20241;-68
2022/09/23 04:45:33;;;;;;;3.25;2.70;;;5.60;99.90;;;;;;4933651;29;20627;-68
2022/09/23 04:48:00;;;;;;;3.00;2.35;;;5.60;99.90;;;;;;4933485;29;20619;-68
2022/09/23 04:50:38;;;;;;;2.95;2.75;;;5.60;99.90;;;;;;4933559;29;20206;-68
2022/09/23 04:53:05;;;;;;;2.40;2.20;;;5.60;99.90;;;;;;4932676;29;20221;-68
2022/09/23 04:55:32;;;;;;;3.60;2.80;;;5.60;99.90;;;;;;4933683;29;20209;-68
2022/09/23 04:58:00;;;;;;;3.80;3.25;;;5.60;99.90;;;;;;4933455;29;20221;-68
2022/09/23 05:00:27;;;;;;;6.32;5.68;;;5.60;99.90;;;;;;4933776;29;20209;-68
2022/09/23 05:02:54;;;;;;;5.32;4.80;;;5.60;99.90;;;;;;4932847;29;20234;-68
2022/09/23 05:05:22;;;;;;;5.30;4.80;;;5.60;99.90;;;;;;4933719;29;20206;-68
2022/09/23 05:07:49;;;;;;;5.82;4.35;;;5.60;99.90;;;;;;4933410;29;20254;-68
2022/09/23 05:10:16;;;;;;;3.10;2.83;;;5.60;99.90;;;;;;4933559;29;20582;-68
2022/09/23 05:12:43;;;;;;;3.75;3.20;;;5.60;99.90;;;;;;4932830;29;20281;-68
2022/09/23 05:15:14;;;;;;;3.05;2.80;;;5.60;99.90;;;;;;4936678;29;20266;-68
2022/09/23 05:17:41;;;;;;;3.53;3.17;;;5.60;99.90;;;;;;4937054;29;20588;-68
2022/09/23 05:20:09;;;;;;;3.83;3.28;;;5.60;99.90;;;;;;4936926;29;20205;-67
2022/09/23 05:22:36;;;;;;;2.55;2.35;;;5.60;99.90;;;;;;4936421;29;20227;-67
2022/09/23 05:25:03;;;;;;;2.63;2.40;;;5.60;99.90;;;;;;4936799;29;20213;-67
2022/09/23 05:27:30;;;;;;;4.15;3.08;;;5.60;99.90;;;;;;4936990;29;20888;-68
2022/09/23 05:29:56;;;;;;;2.60;2.30;;;5.60;99.90;;;;;;4936548;29;20741;-67
2022/09/23 05:32:25;;;;;;;3.80;3.05;;;5.60;99.90;;;;;;4936348;29;20641;-68
2022/09/23 05:34:53;;;;;;;3.08;2.45;;;5.70;99.90;;;;;;4936825;29;20262;-67
2022/09/23 05:37:20;;;;;;;3.05;2.75;;;5.70;99.90;;;;;;4936756;29;20244;-68
2022/09/23 05:39:47;;;;;;;1.92;1.83;;;5.70;99.90;;;;;;4936511;29;20566;-67
2022/09/23 05:42:14;;;;;;;3.08;2.40;;;5.70;99.90;;;;;;4936212;29;20256;-68
2022/09/23 05:44:40;;;;;;;3.92;2.78;;;5.70;99.90;;;;;;4936538;29;20230;-67
2022/09/23 05:47:07;;;;;;;3.95;3.00;;;5.70;99.90;;;;;;4936378;29;20213;-67
2022/09/23 05:49:36;;;;;;;2.90;2.70;;;5.80;99.90;;;;;;4936455;29;20220;-67
2022/09/23 05:52:02;;;;;;;3.50;3.00;;;5.80;99.90;;;;;;4935916;29;20237;-67
2022/09/23 05:54:29;;;;;;;4.45;2.40;;;5.80;99.90;;;;;;4936365;29;20236;-70
2022/09/23 05:56:56;;;;;;;4.15;3.10;;;5.90;99.90;;;;;;4936343;29;20237;-67
2022/09/23 05:59:22;;;;;;;2.92;2.67;;;5.90;99.90;;;;;;4936552;29;20206;-67
2022/09/23 06:01:49;;;;;;;4.38;2.85;;;5.90;99.90;;;;;;4935452;29;20221;-68
2022/09/23 06:04:16;;;;;;;2.60;2.33;;;6.00;99.90;;;;;;4936242;29;20634;-68
2022/09/23 06:06:57;;;;;;;3.33;2.63;;;6.00;99.90;;;;;;5009031;23;20216;-93
2022/09/23 06:09:27;;;;;;;3.13;2.83;;;6.10;99.90;;;;;;5081089;28;20212;-94
2022/09/23 06:11:55;;;;;;;3.00;2.80;;;6.10;99.90;;;;;;5081865;28;20196;-93
2022/09/23 06:14:21;;;;;;;2.63;2.42;;;6.20;99.90;;;;;;5082643;28;20640;-93
2022/09/23 06:16:48;;;;;;;3.35;2.95;;;6.20;99.90;;;;;;5082952;28;20233;-93
2022/09/23 06:19:15;;;;;;;4.82;3.30;;;6.30;99.90;;;;;;5083370;28;20215;-93
2022/09/23 06:21:42;;;;;;;4.97;4.20;;;6.30;99.90;;;;;;5082760;28;20299;-94
2022/09/23 06:24:10;;;;;;;10.32;4.57;;;6.40;99.90;;;;;;5083981;28;20216;-93
2022/09/23 06:26:37;;;;;;;14.45;6.88;;;6.60;99.90;;;;;;5083326;28;20225;-93
2022/09/23 06:29:09;;;;;;;10.98;5.70;;;6.70;99.90;;;;;;5083947;28;20205;-93
2022/09/23 06:31:36;;;;;;;15.32;3.70;;;6.80;99.90;;;;;;5084379;28;20686;-93
2022/09/23 06:34:03;;;;;;;3.95;3.40;;;6.90;99.90;;;;;;5083821;28;20209;-93
2022/09/23 06:36:29;;;;;;;3.22;3.00;;;7.00;99.90;;;;;;5083987;28;20225;-93
2022/09/23 06:38:56;;;;;;;3.05;2.75;;;7.20;99.90;;;;;;5083480;28;20215;-94
2022/09/23 06:41:24;;;;;;;3.55;3.22;;;7.30;99.90;;;;;;5083482;28;20205;-93
2022/09/23 06:43:51;;;;;;;3.33;3.03;;;7.40;99.90;;;;;;5082818;28;20704;-93
2022/09/23 06:46:19;;;;;;;3.63;3.33;;;7.60;99.90;;;;;;5084542;28;20240;-92
2022/09/23 06:48:47;;;;;;;4.13;3.60;;;7.70;99.90;;;;;;5087451;28;20208;-94
2022/09/23 06:51:18;;;;;;;3.58;2.83;;;7.90;99.90;;;;;;5085836;28;20218;-93
2022/09/23 06:53:46;;;;;;;3.55;2.92;;;8.00;99.90;;;;;;5087758;28;20193;-93
2022/09/23 06:56:13;;;;;;;4.68;3.70;;;8.20;99.90;;;;;;5088084;28;20200;-94
2022/09/23 06:58:41;;;;;;;3.67;3.35;;;8.30;99.90;;;;;;5088660;28;20296;-92
2022/09/23 07:01:10;;;;;;;3.70;3.40;;;8.50;99.90;;;;;;5087944;28;20401;-94
2022/09/23 07:03:38;;;;;;;5.93;3.15;;;8.60;99.90;;;;;;5085911;28;20247;-93
2022/09/23 07:06:05;;;;;;;2.85;2.60;;;8.80;99.90;;;;;;5086840;28;20205;-93
2022/09/23 07:08:33;;;;;;;3.13;2.83;;;8.90;99.90;;;;;;5086242;28;20213;-92
2022/09/23 07:11:02;;;;;;;3.35;3.00;;;9.10;99.90;;;;;;5082747;28;20303;-93
2022/09/23 07:13:31;;;;;;;2.55;2.35;;;9.20;99.90;;;;;;5086170;28;20216;-94
2022/09/23 07:16:00;;;;;;;2.80;2.60;;;9.40;99.90;;;;;;5087370;28;20215;-94
2022/09/23 07:18:29;;;;;;;4.53;3.40;;;9.50;99.90;;;;;;5087828;28;20193;-95
2022/09/23 07:20:57;;;;;;;3.70;3.40;;;9.70;99.90;;;;;;5087946;28;20283;-93
2022/09/23 07:23:25;;;;;;;2.80;2.50;;;9.80;99.90;;;;;;5088605;28;20220;-93
2022/09/23 07:25:52;;;;;;;4.43;3.17;;;10.00;99.90;;;;;;5089112;28;20201;-93
2022/09/23 07:28:19;;;;;;;2.90;2.60;;;10.20;99.90;;;;;;5089193;28;20205;-93
2022/09/23 07:30:46;;;;;;;3.25;3.00;;;10.20;99.90;;;;;;5091952;28;20336;-93
2022/09/23 07:33:15;;;;;;;2.88;2.67;;;10.40;99.90;;;;;;5092242;28;20235;-94
2022/09/23 07:35:42;;;;;;;2.92;2.42;;;10.60;99.90;;;;;;5093163;28;20208;-93
2022/09/23 07:38:11;;;;;;;3.40;3.10;;;10.80;99.90;;;;;;5093975;28;20479;-93
2022/09/23 07:40:39;;;;;;;2.78;2.58;;;11.00;99.90;;;;;;5093235;28;20709;-93
2022/09/23 07:43:07;;;;;;;2.67;2.47;;;11.10;99.90;;;;;;5092033;28;20225;-93
2022/09/23 07:45:34;;;;;;;3.40;2.33;;;11.30;99.90;;;;;;5091557;28;20231;-94
2022/09/23 07:48:01;;;;;;;2.65;2.45;;;11.40;99.90;;;;;;5093092;28;20228;-94
2022/09/23 07:50:32;;;;;;;3.10;2.60;;;11.40;99.90;;;;;;5091944;28;20209;-94
2022/09/23 07:53:01;;;;;;;2.78;2.45;;;11.40;99.90;;;;;;5091918;28;20205;-94
2022/09/23 07:55:28;;;;;;;3.25;2.60;;;11.50;99.90;;;;;;5091732;28;20235;-94
2022/09/23 07:57:55;;;;;;;3.30;2.92;;;11.50;99.90;;;;;;5091911;28;20221;-94
2022/09/23 08:00:21;;;;;;;2.70;2.50;;;11.40;99.90;;;;;;5091624;28;20211;-93
2022/09/23 08:02:50;;;;;;;4.97;2.75;;;11.40;99.90;;;;;;5092235;28;20458;-94
2022/09/23 08:05:17;;;;;;;3.15;2.85;;;11.40;99.90;;;;;;5094943;28;20197;-92
2022/09/23 08:07:48;;;;;;;3.22;2.80;;;11.40;99.90;;;;;;5096469;28;20251;-93
2022/09/23 08:10:17;;;;;;;2.75;2.55;;;11.30;99.90;;;;;;5096952;28;20208;-93
2022/09/23 08:12:44;;;;;;;2.38;2.17;;;11.30;99.90;;;;;;5094795;28;20261;-93
2022/09/23 08:15:11;;;;;;;2.65;2.45;;;11.30;99.90;;;;;;5094117;28;20195;-94
2022/09/23 08:17:38;;;;;;;3.15;2.55;;;11.20;99.90;;;;;;5094848;28;20239;-93
2022/09/23 08:20:06;;;;;;;2.90;2.60;;;11.30;99.90;;;;;;5095822;28;20194;-92
2022/09/23 08:22:33;;;;;;;3.33;2.40;;;11.40;99.90;;;;;;5096196;28;20280;-93
2022/09/23 08:25:01;;;;;;;2.75;2.53;;;11.50;99.90;;;;;;5096753;28;20196;-93
2022/09/23 08:27:28;;;;;;;3.10;2.37;;;11.60;99.90;;;;;;5095111;28;20229;-93
2022/09/23 08:29:54;;;;;;;2.40;2.20;;;11.70;99.90;;;;;;5094451;28;20460;-93
2022/09/23 08:32:21;;;;;;;4.10;2.23;;;11.80;99.90;;;;;;5093082;28;20455;-93
2022/09/23 08:34:48;;;;;;;2.03;1.83;;;12.00;99.90;;;;;;5091537;28;20455;-94
2022/09/23 08:37:15;;;;;;;2.33;2.03;;;12.10;99.90;;;;;;5091533;28;20999;-93
2022/09/23 08:39:41;;;;;;;3.00;2.70;;;12.40;99.90;;;;;;5090138;28;20538;-93
2022/09/23 08:45:08;;;;;;;2.60;2.20;;;12.70;99.90;;;;;;5080827;28;20455;-94
2022/09/23 08:47:43;;;;;;;2.33;2.13;;;12.90;99.90;;;;;;5077595;23;20492;-65
2022/09/23 08:50:17;;;;;;;2.22;2.03;;;13.00;99.90;;;;;;5053601;28;20459;-66
2022/09/23 08:52:51;;;;;;;2.07;1.87;;;13.00;99.90;;;;;;5054398;28;20197;-65
2022/09/23 08:55:19;;;;;;;2.10;1.90;;;13.10;99.90;;;;;;5054587;28;21016;-65
2022/09/23 08:58:00;;;;;;;2.67;2.47;;;13.20;99.90;;;;;;5054522;28;20471;-65
2022/09/23 09:00:41;;;;;;;2.20;2.10;;;13.20;99.90;;;;;;5055192;28;20460;-66
2022/09/23 09:03:23;;;;;;;2.20;1.90;;;13.30;99.90;;;;;;5053749;28;21007;-66
2022/09/23 09:05:52;;;;;;;2.50;2.30;;;13.40;99.90;;;;;;5054422;28;20985;-66
2022/09/23 09:08:24;;;;;;;3.43;2.13;;;13.50;99.90;;;;;;5054240;28;20459;-66
2022/09/23 09:10:54;;;;;;;2.17;1.97;;;13.60;99.90;;;;;;5054465;28;20958;-66
2022/09/23 09:13:31;;;;;;;2.20;2.00;;;13.60;99.90;;;;;;5053623;28;20482;-66
2022/09/23 09:16:14;;;;;;;2.03;1.83;;;13.70;99.90;;;;;;5054161;28;20466;-66
2022/09/23 09:18:48;;;;;;;2.30;2.00;;;13.70;99.90;;;;;;5054207;28;20463;-66
2022/09/23 09:21:15;;;;;;;1.53;1.43;;;13.80;99.90;;;;;;5053571;28;20471;-65
2022/09/23 09:23:49;;;;;;;2.70;1.90;;;14.00;99.90;;;;;;5054067;28;20491;-66
2022/09/23 09:26:21;;;;;;;1.70;1.60;;;14.30;99.90;;;;;;5054106;28;20944;-66
2022/09/23 09:28:55;;;;;;;2.53;2.33;;;14.60;99.90;;;;;;5054048;28;20966;-66
2022/09/23 09:31:28;;;;;;;3.37;2.00;;;14.60;99.90;;;;;;5053511;28;20876;-66
2022/09/23 09:34:02;;;;;;;1.90;1.70;;;14.70;99.90;;;;;;5053843;28;20487;-66
2022/09/23 09:36:35;;;;;;;2.10;1.93;;;14.80;99.90;;;;;;5054127;28;20460;-66
2022/09/23 09:39:02;;;;;;;2.20;2.00;;;15.00;99.90;;;;;;5053714;28;20570;-66
2022/09/23 09:41:30;;;;;;;1.90;1.70;;;15.20;99.90;;;;;;5053251;28;20467;-66
2022/09/23 09:44:02;;;;;;;2.10;2.00;;;15.40;99.90;;;;;;5053526;28;20533;-66
2022/09/23 09:46:46;;;;;;;2.17;1.97;;;15.50;99.90;;;;;;5053608;28;20471;-66
2022/09/23 09:49:22;;;;;;;2.30;1.70;;;15.70;99.90;;;;;;5053730;28;20459;-66
2022/09/23 09:52:02;;;;;;;2.50;2.00;;;15.80;99.90;;;;;;5053655;28;20466;-66
2022/09/23 09:54:30;;;;;;;2.20;2.00;;;16.10;99.90;;;;;;5053821;28;20479;-66
2022/09/23 09:56:56;;;;;;;3.37;2.10;;;16.20;99.90;;;;;;5053517;28;20466;-66
2022/09/23 09:59:28;;;;;;;5.00;1.80;;;16.40;99.90;;;;;;5053067;28;20468;-66
2022/09/23 10:02:13;;;;;;;2.40;2.00;;;16.60;99.90;;;;;;5051905;28;20467;-65
2022/09/23 10:04:41;;;;;;;2.27;2.07;;;16.80;99.90;;;;;;5053580;28;20987;-65
2022/09/23 10:07:12;;;;;;;2.17;1.93;;;16.90;99.90;;;;;;5053314;28;20460;-66
2022/09/23 10:09:47;;;;;;;2.60;1.80;;;17.10;99.90;;;;;;5053394;28;20518;-66
2022/09/23 10:12:17;;;;;;;2.27;2.07;;;17.20;99.90;;;;;;5052924;28;20463;-66
2022/09/23 10:14:49;;;;;;;2.53;2.27;;;17.40;99.90;;;;;;5053089;28;20526;-66
2022/09/23 10:17:20;;;;;;;1.93;1.83;;;17.60;99.90;;;;;;5053005;28;20475;-66
2022/09/23 10:19:49;;;;;;;2.27;2.07;;;17.50;99.90;;;;;;5053035;28;20463;-66
2022/09/23 10:22:21;;;;;;;2.40;2.20;;;17.60;99.90;;;;;;5052226;28;20835;-66
2022/09/23 10:24:51;;;;;;;2.60;2.40;;;17.90;99.90;;;;;;5052910;28;20483;-66
2022/09/23 10:27:26;;;;;;;1.80;1.70;;;18.20;99.90;;;;;;5052839;28;20530;-66
2022/09/23 10:29:57;;;;;;;1.77;1.67;;;18.40;99.90;;;;;;5053067;28;20838;-66
2022/09/23 10:32:29;;;;;;;2.03;1.83;;;18.50;99.90;;;;;;5052334;28;20499;-66
2022/09/23 10:34:58;;;;;;;1.77;1.67;;;18.70;99.90;;;;;;5052734;28;20462;-66
2022/09/23 10:37:33;;;;;;;2.20;2.00;;;19.00;99.90;;;;;;5052741;28;20472;-66
2022/09/23 10:48:46;;;;;;;5.70;2.00;;;19.10;99.90;;;;;;5052592;28;20443;-64
2022/09/23 10:51:17;;;;;;;2.03;1.83;;;19.30;99.90;;;;;;5051889;28;20533;-63
2022/09/23 10:53:55;;;;;;;2.87;2.03;;;19.40;99.90;;;;;;5052381;28;20478;-64
2022/09/23 10:56:32;;;;;;;2.70;1.90;;;19.70;99.90;;;;;;5052310;28;20817;-65
2022/09/23 10:59:16;;;;;;;2.97;2.23;;;19.90;99.90;;;;;;5051999;28;20547;-64
2022/09/23 11:01:56;;;;;;;2.50;1.97;;;20.20;99.90;;;;;;5051723;28;20946;-64
2022/09/23 11:04:58;;;;;;;2.50;2.30;;;20.20;99.90;;;;;;5052118;28;20524;-64
2022/09/23 11:07:34;;;;;;;2.10;1.90;;;20.40;99.90;;;;;;5052023;28;20994;-64
2022/09/23 11:10:37;;;;;;;2.53;1.70;;;20.40;99.90;;;;;;5052076;28;20563;-64
2022/09/23 11:13:10;;;;;;;2.20;2.00;;;20.40;99.90;;;;;;5050899;28;20479;-64
2022/09/23 11:15:49;;;;;;;2.07;1.80;;;20.50;99.90;;;;;;5052009;28;20455;-64
2022/09/23 11:18:44;;;;;;;2.80;2.10;;;20.70;99.90;;;;;;5051556;28;20518;-64
2022/09/23 11:21:32;;;;;;;2.37;2.00;;;20.70;99.90;;;;;;5051356;28;20826;-64
2022/09/23 11:24:19;;;;;;;2.30;2.00;;;20.60;99.90;;;;;;5051280;28;20998;-64
2022/09/23 11:26:55;;;;;;;3.80;2.13;;;20.70;99.90;;;;;;5051865;28;20846;-64
2022/09/23 11:29:58;;;;;;;2.13;1.93;;;20.50;99.90;;;;;;5051551;28;20468;-64
2022/09/23 11:32:50;;;;;;;2.87;2.43;;;20.40;99.90;;;;;;5050958;28;20542;-64
2022/09/23 11:35:23;;;;;;;2.90;2.33;;;20.20;99.90;;;;;;5048955;28;20940;-64
2022/09/23 11:37:55;;;;;;;4.47;2.33;;;20.20;99.90;;;;;;5051421;28;20456;-64
2022/09/23 11:40:28;;;;;;;3.30;2.30;;;20.20;99.90;;;;;;5051217;28;20458;-64
2022/09/23 11:42:59;;;;;;;2.53;2.33;;;20.20;99.90;;;;;;5050852;28;20472;-64
2022/09/23 11:45:31;;;;;;;2.60;2.40;;;20.30;99.90;;;;;;5051426;28;20491;-64
2022/09/23 11:48:02;;;;;;;2.77;2.57;;;20.30;99.90;;;;;;5051387;28;20471;-64
2022/09/23 11:50:37;;;;;;;2.13;1.93;;;20.30;99.90;;;;;;5051207;28;20464;-64
2022/09/23 11:53:08;;;;;;;2.53;2.33;;;20.40;99.90;;;;;;5050495;28;20853;-64
2022/09/23 11:55:43;;;;;;;2.43;1.80;;;20.50;99.90;;;;;;5051309;28;20464;-64
2022/09/23 11:58:13;;;;;;;1.80;1.70;;;20.90;99.90;;;;;;5051144;28;20829;-64
2022/09/23 12:00:48;;;;;;;2.33;2.13;;;21.20;99.90;;;;;;5051105;28;20518;-64
2022/09/23 12:03:22;;;;;;;2.70;2.30;;;21.30;99.90;;;;;;5050150;28;20494;-64
2022/09/23 12:05:58;;;;;;;2.63;2.43;;;20.80;99.90;;;;;;5051139;28;20571;-64
2022/09/23 12:08:28;;;;;;;2.87;2.60;;;20.60;99.90;;;;;;5073251;23;21025;-92
2022/09/23 12:11:02;;;;;;;2.20;2.00;;;20.20;99.90;;;;;;5052102;28;20452;-92
2022/09/23 12:13:39;;;;;;;2.43;2.23;;;20.00;99.90;;;;;;5055757;28;20467;-92
2022/09/23 12:16:28;;;;;;;2.50;2.30;;;19.80;99.90;;;;;;5055484;28;20450;-92
2022/09/23 12:19:06;;;;;;;2.30;2.10;;;19.60;99.90;;;;;;5035219;28;20470;-93
2022/09/23 12:21:55;;;;;;;2.43;2.23;;;19.30;99.90;;;;;;5034498;28;20988;-93
2022/09/23 12:25:00;;;;;;;5.93;2.63;;;19.10;99.90;;;;;;5046071;28;20461;-93
2022/09/23 12:27:36;;;;;;;2.20;2.07;;;19.00;99.90;;;;;;4995407;28;20473;-92
2022/09/23 12:30:06;;;;;;;3.17;2.50;;;18.90;99.90;;;;;;5035372;28;20874;-92
2022/09/23 12:32:33;;;;;;;3.60;2.13;;;18.70;99.90;;;;;;5034106;28;20456;-92
2022/09/23 12:35:01;;;;;;;2.50;2.30;;;18.70;99.90;;;;;;5035178;28;20465;-92
2022/09/23 12:37:34;;;;;;;2.13;1.93;;;18.70;99.90;;;;;;5034718;28;20860;-91
2022/09/23 12:40:08;;;;;;;2.70;2.50;;;18.90;99.90;;;;;;5034735;28;20450;-92
2022/09/23 12:42:40;;;;;;;2.80;2.57;;;18.90;99.90;;;;;;5034397;28;20473;-92
2022/09/23 12:45:37;;;;;;;2.70;2.37;;;18.90;99.90;;;;;;5034966;28;20488;-92
2022/09/23 12:48:08;;;;;;;2.77;2.40;;;18.80;99.90;;;;;;5034454;28;20913;-91
2022/09/23 12:50:50;;;;;;;2.27;2.07;;;18.70;99.90;;;;;;5034912;28;20465;-94
2022/09/23 12:53:51;;;;;;;3.00;2.27;;;18.60;99.90;;;;;;5034527;28;20961;-92
2022/09/23 12:56:21;;;;;;;2.23;2.03;;;18.60;99.90;;;;;;5034510;28;20457;-92
2022/09/23 12:58:58;;;;;;;2.40;2.20;;;18.70;99.90;;;;;;5034869;28;20540;-92
2022/09/23 13:01:26;;;;;;;2.80;2.40;;;18.90;99.90;;;;;;5034501;28;20464;-92
2022/09/23 13:06:42;;;;;;;5.00;2.60;;;19.40;99.90;;;;;;5034546;28;20502;-92
2022/09/23 13:09:15;;;;;;;2.47;2.27;;;19.60;99.90;;;;;;5034426;28;20461;-92
2022/09/23 13:11:46;;;;;;;2.50;2.30;;;19.70;99.90;;;;;;5034030;28;20474;-91
2022/09/23 13:14:20;;;;;;;4.23;2.87;;;19.70;99.90;;;;;;5033797;28;20544;-92
2022/09/23 13:16:47;;;;;;;2.63;2.40;;;19.60;99.90;;;;;;5034458;28;20532;-92
2022/09/23 13:19:43;;;;;;;2.23;2.03;;;19.60;99.90;;;;;;5034841;28;20473;-92
2022/09/23 13:22:11;;;;;;;5.13;2.73;;;19.50;99.90;;;;;;5033975;28;20457;-91
2022/09/23 13:24:43;;;;;;;2.33;2.13;;;19.40;99.90;;;;;;5035505;28;20485;-92
2022/09/23 13:27:17;;;;;;;2.27;2.07;;;19.30;99.90;;;;;;5036952;28;20856;-92
2022/09/23 13:29:50;;;;;;;3.77;2.17;;;19.30;99.90;;;;;;5036783;28;20456;-90
2022/09/23 13:32:19;;;;;;;2.50;2.20;;;19.20;99.90;;;;;;5033711;28;20461;-92
2022/09/23 13:34:58;;;;;;;2.37;2.17;;;19.10;99.90;;;;;;5035254;28;20456;-93
2022/09/23 13:37:30;;;;;;;2.50;2.30;;;18.90;99.90;;;;;;5037395;28;20507;-91
2022/09/23 13:40:07;;;;;;;2.50;2.30;;;18.80;99.90;;;;;;5038512;28;20992;-93
2022/09/23 13:42:38;;;;;;;2.80;2.50;;;18.70;99.90;;;;;;5036282;28;20464;-92
2022/09/23 13:45:05;;;;;;;2.40;2.20;;;18.60;99.90;;;;;;5037296;28;20476;-92
2022/09/23 13:47:36;;;;;;;2.80;2.20;;;18.60;99.90;;;;;;5036565;28;20508;-92
2022/09/23 13:50:03;;;;;;;2.70;2.47;;;18.60;99.90;;;;;;5037208;28;20456;-91
2022/09/23 13:52:32;;;;;;;2.40;2.20;;;18.60;99.90;;;;;;5036357;28;20468;-92
2022/09/23 13:54:59;;;;;;;3.10;2.50;;;18.70;99.90;;;;;;5038474;28;20512;-92
2022/09/23 13:57:29;;;;;;;4.53;2.50;;;18.90;99.90;;;;;;5038767;28;20508;-93
2022/09/23 14:00:19;;;;;;;3.97;3.03;;;19.10;99.90;;;;;;5039016;28;21032;-92
2022/09/23 14:02:49;;;;;;;3.20;2.60;;;19.40;99.90;;;;;;5037644;28;20464;-91
2022/09/23 14:05:22;;;;;;;2.80;2.60;;;19.60;99.90;;;;;;5038583;28;20511;-92
2022/09/23 14:07:50;;;;;;;3.17;2.57;;;19.70;99.90;;;;;;5045518;28;20564;-91
2022/09/23 14:10:46;;;;;;;4.63;2.90;;;19.70;99.90;;;;;;5051171;28;20457;-93
2022/09/23 14:13:16;;;;;;;3.80;3.40;;;19.60;99.90;;;;;;5046587;28;20458;-94
2022/09/23 14:15:48;;;;;;;3.60;2.60;;;19.70;99.90;;;;;;5049449;28;20454;-93
2022/09/23 14:18:21;;;;;;;2.90;2.60;;;19.80;99.90;;;;;;5054380;28;20546;-93
2022/09/23 14:20:49;;;;;;;2.67;2.47;;;19.80;99.90;;;;;;5052998;28;20467;-93
2022/09/23 14:23:16;;;;;;;2.90;2.60;;;19.70;99.90;;;;;;5049868;28;20466;-94
2022/09/23 14:25:44;;;;;;;3.97;2.43;;;19.60;99.90;;;;;;5051008;28;20486;-93
2022/09/23 14:28:15;;;;;;;2.90;2.70;;;19.60;99.90;;;;;;5049562;28;20483;-92
2022/09/23 14:30:44;;;;;;;3.40;3.10;;;19.40;99.90;;;;;;5050133;28;20512;-92
2022/09/23 14:33:20;;;;;;;4.10;3.10;;;19.60;99.90;;;;;;5049059;28;20484;-93
2022/09/23 14:35:51;;;;;;;5.40;3.47;;;19.70;99.90;;;;;;5049490;28;20451;-93
2022/09/23 14:41:20;;;;;;;4.00;2.93;;;19.70;99.90;;;;;;5059888;23;20472;-68
2022/09/23 14:43:49;;;;;;;4.70;3.10;;;19.60;99.90;;;;;;5032485;28;20569;-68
2022/09/23 14:46:18;;;;;;;2.73;2.53;;;19.40;99.90;;;;;;5011698;28;20576;-68
2022/09/23 14:48:56;;;;;;;3.73;2.73;;;19.30;99.90;;;;;;5012464;28;21065;-68
2022/09/23 14:51:44;;;;;;;2.50;2.30;;;19.10;99.90;;;;;;5012013;28;20467;-68
2022/09/23 14:54:34;;;;;;;3.23;2.70;;;19.00;99.90;;;;;;5012547;28;20486;-68
2022/09/23 14:57:04;;;;;;;6.50;2.87;;;18.80;99.90;;;;;;5012466;28;20468;-68
2022/09/23 14:59:34;;;;;;;2.60;2.37;;;18.80;99.90;;;;;;5012330;28;20522;-68
2022/09/23 15:02:01;;;;;;;4.07;2.80;;;18.70;99.90;;;;;;5011946;28;21000;-68